sensor_id;sensor_type;location;lat;lon;timestamp;temperature;humidity
7512;DHT22;9999;48.780;9.146;2022-08-20T00:00:59;20.30;99.90
7512;DHT22;9999;48.780;9.146;2022-08-20T00:03:28;20.20;99.90
7512;DHT22;9999;48.780;9.146;2022-08-20T00:05:58;20.20;99.90
7512;DHT22;9999;48.780;9.146;2022-08-20T00:08:26;20.20;99.90
7512;DHT22;9999;48.780;9.146;2022-08-20T00:10:54;20.20;99.90
7512;DHT22;9999;48.780;9.146;2022-08-20T00:13:25;20.20;99.90
7512;DHT22;9999;48.780;9.146;2022-08-20T00:15:52;20.10;99.90
7512;DHT22;9999;48.780;9.146;2022-08-20T00:18:19;20.10;99.90
7512;DHT22;9999;48.780;9.146;2022-08-20T00:20:48;20.10;99.90
7512;DHT22;9999;48.780;9.146;2022-08-20T00:23:16;20.00;99.90
7512;DHT22;9999;48.780;9.146;2022-08-20T00:25:44;20.00;99.90
7512;DHT22;9999;48.780;9.146;2022-08-20T00:28:11;20.00;99.90
7512;DHT22;9999;48.780;9.146;2022-08-20T00:30:41;19.90;99.90
7512;DHT22;9999;48.780;9.146;2022-08-20T00:33:11;19.90;99.90
7512;DHT22;9999;48.780;9.146;2022-08-20T00:35:40;20.00;99.90
7512;DHT22;9999;48.780;9.146;2022-08-20T00:38:08;19.90;99.90
7512;DHT22;9999;48.780;9.146;2022-08-20T00:40:39;19.90;99.90
7512;DHT22;9999;48.780;9.146;2022-08-20T00:43:25;19.90;99.90
7512;DHT22;9999;48.780;9.146;2022-08-20T00:45:53;19.90;99.90
7512;DHT22;9999;48.780;9.146;2022-08-20T00:48:22;19.90;99.90
7512;DHT22;9999;48.780;9.146;2022-08-20T00:50:50;19.80;99.90
7512;DHT22;9999;48.780;9.146;2022-08-20T00:53:19;19.90;99.90
7512;DHT22;9999;48.780;9.146;2022-08-20T00:55:47;19.90;99.90
7512;DHT22;9999;48.780;9.146;2022-08-20T00:58:14;19.90;99.90
7512;DHT22;9999;48.780;9.146;2022-08-20T01:00:43;19.90;99.90
7512;DHT22;9999;48.780;9.146;2022-08-20T01:03:14;19.90;99.90
7512;DHT22;9999;48.780;9.146;2022-08-20T01:05:44;19.80;99.90
7512;DHT22;9999;48.780;9.146;2022-08-20T01:08:13;19.90;99.90
7512;DHT22;9999;48.780;9.146;2022-08-20T01:10:42;19.90;99.90
7512;DHT22;9999;48.780;9.146;2022-08-20T01:13:11;19.90;99.90
7512;DHT22;9999;48.780;9.146;2022-08-20T01:15:42;19.90;99.90
7512;DHT22;9999;48.780;9.146;2022-08-20T01:18:14;19.90;99.90
7512;DHT22;9999;48.780;9.146;2022-08-20T01:20:44;19.90;99.90
7512;DHT22;9999;48.780;9.146;2022-08-20T01:23:17;19.80;99.90
7512;DHT22;9999;48.780;9.146;2022-08-20T01:25:56;19.80;99.90
7512;DHT22;9999;48.780;9.146;2022-08-20T01:28:28;19.80;99.90
7512;DHT22;9999;48.780;9.146;2022-08-20T01:30:55;19.80;99.90
7512;DHT22;9999;48.780;9.146;2022-08-20T01:33:23;19.80;99.90
7512;DHT22;9999;48.780;9.146;2022-08-20T01:35:51;19.80;99.90
7512;DHT22;9999;48.780;9.146;2022-08-20T01:38:19;19.80;99.90
7512;DHT22;9999;48.780;9.146;2022-08-20T01:41:06;19.90;99.90
7512;DHT22;9999;48.780;9.146;2022-08-20T01:43:35;19.80;99.90
7512;DHT22;9999;48.780;9.146;2022-08-20T01:46:03;19.80;99.90
7512;DHT22;9999;48.780;9.146;2022-08-20T01:48:30;19.80;99.90
7512;DHT22;9999;48.780;9.146;2022-08-20T01:51:14;19.80;99.90
7512;DHT22;9999;48.780;9.146;2022-08-20T01:53:44;19.90;99.90
7512;DHT22;9999;48.780;9.146;2022-08-20T01:56:15;19.90;99.90
7512;DHT22;9999;48.780;9.146;2022-08-20T01:58:46;19.90;99.90
7512;DHT22;9999;48.780;9.146;2022-08-20T02:01:21;19.90;99.90
7512;DHT22;9999;48.780;9.146;2022-08-20T02:03:49;19.80;99.90
7512;DHT22;9999;48.780;9.146;2022-08-20T02:06:16;19.90;99.90
7512;DHT22;9999;48.780;9.146;2022-08-20T02:08:43;19.90;99.90
7512;DHT22;9999;48.780;9.146;2022-08-20T02:11:12;19.90;99.90
7512;DHT22;9999;48.780;9.146;2022-08-20T02:13:39;20.00;99.90
7512;DHT22;9999;48.780;9.146;2022-08-20T02:16:06;19.90;99.90
7512;DHT22;9999;48.780;9.146;2022-08-20T02:18:33;19.90;99.90
7512;DHT22;9999;48.780;9.146;2022-08-20T02:21:00;19.90;99.90
7512;DHT22;9999;48.780;9.146;2022-08-20T02:23:27;19.90;99.90
7512;DHT22;9999;48.780;9.146;2022-08-20T02:25:54;19.90;99.90
7512;DHT22;9999;48.780;9.146;2022-08-20T02:28:22;19.90;99.90
7512;DHT22;9999;48.780;9.146;2022-08-20T02:30:51;19.90;99.90
7512;DHT22;9999;48.780;9.146;2022-08-20T02:33:21;19.90;99.90
7512;DHT22;9999;48.780;9.146;2022-08-20T02:35:49;19.90;99.90
7512;DHT22;9999;48.780;9.146;2022-08-20T02:38:16;19.90;99.90
7512;DHT22;9999;48.780;9.146;2022-08-20T02:40:44;19.80;99.90
7512;DHT22;9999;48.780;9.146;2022-08-20T02:43:13;19.80;99.90
7512;DHT22;9999;48.780;9.146;2022-08-20T02:45:44;19.80;99.90
7512;DHT22;9999;48.780;9.146;2022-08-20T02:48:14;19.90;99.90
7512;DHT22;9999;48.780;9.146;2022-08-20T02:50:46;19.90;99.90
7512;DHT22;9999;48.780;9.146;2022-08-20T02:53:14;19.90;99.90
7512;DHT22;9999;48.780;9.146;2022-08-20T02:55:41;19.90;99.90
7512;DHT22;9999;48.780;9.146;2022-08-20T02:58:07;19.90;99.90
7512;DHT22;9999;48.780;9.146;2022-08-20T03:00:34;19.80;99.90
7512;DHT22;9999;48.780;9.146;2022-08-20T03:03:02;19.80;99.90
7512;DHT22;9999;48.780;9.146;2022-08-20T03:05:29;19.80;99.90
7512;DHT22;9999;48.780;9.146;2022-08-20T03:07:56;19.80;99.90
7512;DHT22;9999;48.780;9.146;2022-08-20T03:10:24;19.90;99.90
7512;DHT22;9999;48.780;9.146;2022-08-20T03:12:52;19.90;99.90
7512;DHT22;9999;48.780;9.146;2022-08-20T03:15:19;19.80;99.90
7512;DHT22;9999;48.780;9.146;2022-08-20T03:17:46;19.90;99.90
7512;DHT22;9999;48.780;9.146;2022-08-20T03:20:15;19.90;99.90
7512;DHT22;9999;48.780;9.146;2022-08-20T03:22:42;19.90;99.90
7512;DHT22;9999;48.780;9.146;2022-08-20T03:25:09;19.90;99.90
7512;DHT22;9999;48.780;9.146;2022-08-20T03:27:37;19.90;99.90
7512;DHT22;9999;48.780;9.146;2022-08-20T03:30:06;19.80;99.90
7512;DHT22;9999;48.780;9.146;2022-08-20T03:32:35;19.80;99.90
7512;DHT22;9999;48.780;9.146;2022-08-20T03:35:02;19.80;99.90
7512;DHT22;9999;48.780;9.146;2022-08-20T03:37:31;19.80;99.90
7512;DHT22;9999;48.780;9.146;2022-08-20T03:39:59;19.80;99.90
7512;DHT22;9999;48.780;9.146;2022-08-20T03:42:26;19.70;99.90
7512;DHT22;9999;48.780;9.146;2022-08-20T03:44:53;19.70;99.90
7512;DHT22;9999;48.780;9.146;2022-08-20T03:47:20;19.60;99.90
7512;DHT22;9999;48.780;9.146;2022-08-20T03:49:46;19.60;99.90
7512;DHT22;9999;48.780;9.146;2022-08-20T03:52:13;19.60;99.90
7512;DHT22;9999;48.780;9.146;2022-08-20T03:54:43;19.70;99.90
7512;DHT22;9999;48.780;9.146;2022-08-20T03:57:13;19.70;99.90
7512;DHT22;9999;48.780;9.146;2022-08-20T03:59:42;19.70;99.90
7512;DHT22;9999;48.780;9.146;2022-08-20T04:02:09;19.60;99.90
7512;DHT22;9999;48.780;9.146;2022-08-20T04:04:36;19.60;99.90
7512;DHT22;9999;48.780;9.146;2022-08-20T04:07:09;19.60;99.90
7512;DHT22;9999;48.780;9.146;2022-08-20T04:09:36;19.70;99.90
7512;DHT22;9999;48.780;9.146;2022-08-20T04:12:06;19.60;99.90
7512;DHT22;9999;48.780;9.146;2022-08-20T04:14:33;19.60;99.90
7512;DHT22;9999;48.780;9.146;2022-08-20T04:17:04;19.60;99.90
7512;DHT22;9999;48.780;9.146;2022-08-20T04:19:31;19.50;99.90
7512;DHT22;9999;48.780;9.146;2022-08-20T04:21:58;19.60;99.90
7512;DHT22;9999;48.780;9.146;2022-08-20T04:24:25;19.60;99.90
7512;DHT22;9999;48.780;9.146;2022-08-20T04:26:52;19.60;99.90
7512;DHT22;9999;48.780;9.146;2022-08-20T04:29:21;19.60;99.90
7512;DHT22;9999;48.780;9.146;2022-08-20T04:31:49;19.60;99.90
7512;DHT22;9999;48.780;9.146;2022-08-20T04:34:16;19.60;99.90
7512;DHT22;9999;48.780;9.146;2022-08-20T04:36:44;19.60;99.90
7512;DHT22;9999;48.780;9.146;2022-08-20T04:39:12;19.50;99.90
7512;DHT22;9999;48.780;9.146;2022-08-20T04:41:39;19.60;99.90
7512;DHT22;9999;48.780;9.146;2022-08-20T04:44:06;19.60;99.90
7512;DHT22;9999;48.780;9.146;2022-08-20T04:46:34;19.60;99.90
7512;DHT22;9999;48.780;9.146;2022-08-20T04:49:01;19.60;99.90
7512;DHT22;9999;48.780;9.146;2022-08-20T04:51:28;19.60;99.90
7512;DHT22;9999;48.780;9.146;2022-08-20T04:53:56;19.60;99.90
7512;DHT22;9999;48.780;9.146;2022-08-20T04:56:25;19.50;99.90
7512;DHT22;9999;48.780;9.146;2022-08-20T04:58:53;19.60;99.90
7512;DHT22;9999;48.780;9.146;2022-08-20T05:01:21;19.60;99.90
7512;DHT22;9999;48.780;9.146;2022-08-20T05:03:51;19.60;99.90
7512;DHT22;9999;48.780;9.146;2022-08-20T05:06:19;19.60;99.90
7512;DHT22;9999;48.780;9.146;2022-08-20T05:08:47;19.50;99.90
7512;DHT22;9999;48.780;9.146;2022-08-20T05:11:14;19.60;99.90
7512;DHT22;9999;48.780;9.146;2022-08-20T05:13:40;19.60;99.90
7512;DHT22;9999;48.780;9.146;2022-08-20T05:16:08;19.60;99.90
7512;DHT22;9999;48.780;9.146;2022-08-20T05:18:35;19.50;99.90
7512;DHT22;9999;48.780;9.146;2022-08-20T05:21:03;19.60;99.90
7512;DHT22;9999;48.780;9.146;2022-08-20T05:23:31;19.60;99.90
7512;DHT22;9999;48.780;9.146;2022-08-20T05:25:58;19.60;99.90
7512;DHT22;9999;48.780;9.146;2022-08-20T05:28:27;19.50;99.90
7512;DHT22;9999;48.780;9.146;2022-08-20T05:30:58;19.50;99.90
7512;DHT22;9999;48.780;9.146;2022-08-20T05:33:25;19.60;99.90
7512;DHT22;9999;48.780;9.146;2022-08-20T05:35:53;19.50;99.90
7512;DHT22;9999;48.780;9.146;2022-08-20T05:38:23;19.50;99.90
7512;DHT22;9999;48.780;9.146;2022-08-20T05:40:51;19.50;99.90
7512;DHT22;9999;48.780;9.146;2022-08-20T05:43:18;19.50;99.90
7512;DHT22;9999;48.780;9.146;2022-08-20T05:45:46;19.50;99.90
7512;DHT22;9999;48.780;9.146;2022-08-20T05:48:19;19.50;99.90
7512;DHT22;9999;48.780;9.146;2022-08-20T05:50:48;19.50;99.90
7512;DHT22;9999;48.780;9.146;2022-08-20T05:53:16;19.50;99.90
7512;DHT22;9999;48.780;9.146;2022-08-20T05:55:44;19.50;99.90
7512;DHT22;9999;48.780;9.146;2022-08-20T05:58:18;19.50;99.90
7512;DHT22;9999;48.780;9.146;2022-08-20T06:00:45;19.60;99.90
7512;DHT22;9999;48.780;9.146;2022-08-20T06:03:12;19.60;99.90
7512;DHT22;9999;48.780;9.146;2022-08-20T06:05:57;19.60;99.90
7512;DHT22;9999;48.780;9.146;2022-08-20T06:08:24;19.70;99.90
7512;DHT22;9999;48.780;9.146;2022-08-20T06:10:52;19.70;99.90
7512;DHT22;9999;48.780;9.146;2022-08-20T06:13:18;19.80;99.90
7512;DHT22;9999;48.780;9.146;2022-08-20T06:15:45;19.80;99.90
7512;DHT22;9999;48.780;9.146;2022-08-20T06:18:12;19.90;99.90
7512;DHT22;9999;48.780;9.146;2022-08-20T06:20:39;20.00;99.90
7512;DHT22;9999;48.780;9.146;2022-08-20T06:23:06;20.00;99.90
7512;DHT22;9999;48.780;9.146;2022-08-20T06:25:34;20.10;99.90
7512;DHT22;9999;48.780;9.146;2022-08-20T06:28:03;20.10;99.90
7512;DHT22;9999;48.780;9.146;2022-08-20T06:30:30;20.20;99.90
7512;DHT22;9999;48.780;9.146;2022-08-20T06:32:57;20.20;99.90
7512;DHT22;9999;48.780;9.146;2022-08-20T06:35:24;20.20;99.90
7512;DHT22;9999;48.780;9.146;2022-08-20T06:37:51;20.10;99.90
7512;DHT22;9999;48.780;9.146;2022-08-20T06:40:20;20.10;99.90
7512;DHT22;9999;48.780;9.146;2022-08-20T06:42:47;20.10;99.90
7512;DHT22;9999;48.780;9.146;2022-08-20T06:45:17;20.10;99.90
7512;DHT22;9999;48.780;9.146;2022-08-20T06:47:45;20.10;99.90
7512;DHT22;9999;48.780;9.146;2022-08-20T06:50:15;20.20;99.90
7512;DHT22;9999;48.780;9.146;2022-08-20T06:52:42;20.20;99.90
7512;DHT22;9999;48.780;9.146;2022-08-20T06:55:10;20.20;99.90
7512;DHT22;9999;48.780;9.146;2022-08-20T06:57:38;20.20;99.90
7512;DHT22;9999;48.780;9.146;2022-08-20T07:00:08;20.20;99.90
7512;DHT22;9999;48.780;9.146;2022-08-20T07:02:37;20.20;99.90
7512;DHT22;9999;48.780;9.146;2022-08-20T07:05:05;20.20;99.90
7512;DHT22;9999;48.780;9.146;2022-08-20T07:07:32;20.20;99.90
7512;DHT22;9999;48.780;9.146;2022-08-20T07:10:00;20.30;99.90
7512;DHT22;9999;48.780;9.146;2022-08-20T07:12:26;20.30;99.90
7512;DHT22;9999;48.780;9.146;2022-08-20T07:14:53;20.20;99.90
7512;DHT22;9999;48.780;9.146;2022-08-20T07:17:20;20.30;99.90
7512;DHT22;9999;48.780;9.146;2022-08-20T07:19:48;20.30;99.90
7512;DHT22;9999;48.780;9.146;2022-08-20T07:22:15;20.30;99.90
7512;DHT22;9999;48.780;9.146;2022-08-20T07:24:42;20.40;99.90
7512;DHT22;9999;48.780;9.146;2022-08-20T07:27:09;20.40;99.90
7512;DHT22;9999;48.780;9.146;2022-08-20T07:29:36;20.40;99.90
7512;DHT22;9999;48.780;9.146;2022-08-20T07:32:20;20.40;99.90
7512;DHT22;9999;48.780;9.146;2022-08-20T07:35:07;20.50;99.90
7512;DHT22;9999;48.780;9.146;2022-08-20T07:37:37;20.60;99.90
7512;DHT22;9999;48.780;9.146;2022-08-20T07:40:05;20.60;99.90
7512;DHT22;9999;48.780;9.146;2022-08-20T07:42:32;20.60;99.90
7512;DHT22;9999;48.780;9.146;2022-08-20T07:44:58;20.70;99.90
7512;DHT22;9999;48.780;9.146;2022-08-20T07:47:25;20.80;99.90
7512;DHT22;9999;48.780;9.146;2022-08-20T07:49:52;20.90;99.90
7512;DHT22;9999;48.780;9.146;2022-08-20T07:52:20;20.80;99.90
7512;DHT22;9999;48.780;9.146;2022-08-20T07:54:47;20.90;99.90
7512;DHT22;9999;48.780;9.146;2022-08-20T07:57:13;21.00;99.90
7512;DHT22;9999;48.780;9.146;2022-08-20T07:59:41;21.10;99.90
7512;DHT22;9999;48.780;9.146;2022-08-20T08:02:09;21.20;99.90
7512;DHT22;9999;48.780;9.146;2022-08-20T08:04:36;21.30;99.90
7512;DHT22;9999;48.780;9.146;2022-08-20T08:07:04;21.30;99.90
7512;DHT22;9999;48.780;9.146;2022-08-20T08:09:33;21.30;99.90
7512;DHT22;9999;48.780;9.146;2022-08-20T08:12:01;21.50;99.90
7512;DHT22;9999;48.780;9.146;2022-08-20T08:14:33;21.50;99.90
7512;DHT22;9999;48.780;9.146;2022-08-20T08:17:02;21.40;99.90
7512;DHT22;9999;48.780;9.146;2022-08-20T08:19:33;21.50;99.90
7512;DHT22;9999;48.780;9.146;2022-08-20T08:22:04;21.60;99.90
7512;DHT22;9999;48.780;9.146;2022-08-20T08:24:33;21.70;99.90
7512;DHT22;9999;48.780;9.146;2022-08-20T08:27:00;21.70;99.90
7512;DHT22;9999;48.780;9.146;2022-08-20T08:29:26;21.70;99.90
7512;DHT22;9999;48.780;9.146;2022-08-20T08:31:54;21.90;99.90
7512;DHT22;9999;48.780;9.146;2022-08-20T08:34:21;22.00;99.90
7512;DHT22;9999;48.780;9.146;2022-08-20T08:36:50;22.30;99.90
7512;DHT22;9999;48.780;9.146;2022-08-20T08:39:17;22.40;99.90
7512;DHT22;9999;48.780;9.146;2022-08-20T08:41:47;22.50;99.90
7512;DHT22;9999;48.780;9.146;2022-08-20T08:44:18;22.50;99.90
7512;DHT22;9999;48.780;9.146;2022-08-20T08:46:49;22.40;99.90
7512;DHT22;9999;48.780;9.146;2022-08-20T08:49:19;22.40;99.90
7512;DHT22;9999;48.780;9.146;2022-08-20T08:51:49;22.40;99.90
7512;DHT22;9999;48.780;9.146;2022-08-20T08:54:20;22.60;99.90
7512;DHT22;9999;48.780;9.146;2022-08-20T08:56:48;23.00;99.90
7512;DHT22;9999;48.780;9.146;2022-08-20T08:59:15;23.10;99.90
7512;DHT22;9999;48.780;9.146;2022-08-20T09:01:44;23.10;99.90
7512;DHT22;9999;48.780;9.146;2022-08-20T09:04:12;23.10;99.90
7512;DHT22;9999;48.780;9.146;2022-08-20T09:06:39;23.00;99.90
7512;DHT22;9999;48.780;9.146;2022-08-20T09:09:16;23.10;99.90
7512;DHT22;9999;48.780;9.146;2022-08-20T09:11:50;23.00;99.90
7512;DHT22;9999;48.780;9.146;2022-08-20T09:14:18;22.90;99.90
7512;DHT22;9999;48.780;9.146;2022-08-20T09:16:45;22.90;99.90
7512;DHT22;9999;48.780;9.146;2022-08-20T09:19:12;22.80;99.90
7512;DHT22;9999;48.780;9.146;2022-08-20T09:21:39;22.80;99.90
7512;DHT22;9999;48.780;9.146;2022-08-20T09:24:06;22.70;99.90
7512;DHT22;9999;48.780;9.146;2022-08-20T09:26:32;22.70;99.90
7512;DHT22;9999;48.780;9.146;2022-08-20T09:29:00;22.70;99.90
7512;DHT22;9999;48.780;9.146;2022-08-20T09:31:27;22.70;99.90
7512;DHT22;9999;48.780;9.146;2022-08-20T09:33:54;22.90;99.90
7512;DHT22;9999;48.780;9.146;2022-08-20T09:36:21;22.90;99.90
7512;DHT22;9999;48.780;9.146;2022-08-20T09:38:47;23.00;99.90
7512;DHT22;9999;48.780;9.146;2022-08-20T09:41:14;23.00;99.90
7512;DHT22;9999;48.780;9.146;2022-08-20T09:43:41;23.00;99.90
7512;DHT22;9999;48.780;9.146;2022-08-20T09:46:09;23.20;99.90
7512;DHT22;9999;48.780;9.146;2022-08-20T09:48:36;23.20;99.90
7512;DHT22;9999;48.780;9.146;2022-08-20T09:51:03;23.20;99.90
7512;DHT22;9999;48.780;9.146;2022-08-20T09:53:30;23.40;99.90
7512;DHT22;9999;48.780;9.146;2022-08-20T09:55:57;23.70;99.90
7512;DHT22;9999;48.780;9.146;2022-08-20T09:58:31;23.90;99.90
7512;DHT22;9999;48.780;9.146;2022-08-20T10:01:01;23.80;99.90
7512;DHT22;9999;48.780;9.146;2022-08-20T10:03:30;23.70;99.90
7512;DHT22;9999;48.780;9.146;2022-08-20T10:05:57;23.60;99.90
7512;DHT22;9999;48.780;9.146;2022-08-20T10:08:24;23.80;99.90
7512;DHT22;9999;48.780;9.146;2022-08-20T10:10:51;23.80;99.90
7512;DHT22;9999;48.780;9.146;2022-08-20T10:13:18;23.70;99.90
7512;DHT22;9999;48.780;9.146;2022-08-20T10:15:44;23.50;99.90
7512;DHT22;9999;48.780;9.146;2022-08-20T10:18:11;23.60;99.90
7512;DHT22;9999;48.780;9.146;2022-08-20T10:20:40;23.80;99.90
7512;DHT22;9999;48.780;9.146;2022-08-20T10:23:07;24.00;99.90
7512;DHT22;9999;48.780;9.146;2022-08-20T10:25:33;23.80;99.90
7512;DHT22;9999;48.780;9.146;2022-08-20T10:28:00;23.90;99.90
7512;DHT22;9999;48.780;9.146;2022-08-20T10:30:27;23.80;99.90
7512;DHT22;9999;48.780;9.146;2022-08-20T10:32:54;23.80;99.90
7512;DHT22;9999;48.780;9.146;2022-08-20T10:35:21;24.10;99.90
7512;DHT22;9999;48.780;9.146;2022-08-20T10:37:49;24.10;99.90
7512;DHT22;9999;48.780;9.146;2022-08-20T10:40:16;23.90;99.90
7512;DHT22;9999;48.780;9.146;2022-08-20T10:42:43;23.70;99.90
7512;DHT22;9999;48.780;9.146;2022-08-20T10:45:11;24.00;99.90
7512;DHT22;9999;48.780;9.146;2022-08-20T10:47:39;24.40;99.90
7512;DHT22;9999;48.780;9.146;2022-08-20T10:50:09;24.80;99.90
7512;DHT22;9999;48.780;9.146;2022-08-20T10:52:36;25.10;99.90
7512;DHT22;9999;48.780;9.146;2022-08-20T10:55:08;24.90;99.90
7512;DHT22;9999;48.780;9.146;2022-08-20T10:57:37;24.50;99.90
7512;DHT22;9999;48.780;9.146;2022-08-20T11:00:05;23.90;99.90
7512;DHT22;9999;48.780;9.146;2022-08-20T11:02:32;23.70;99.90
7512;DHT22;9999;48.780;9.146;2022-08-20T11:04:59;23.60;99.90
7512;DHT22;9999;48.780;9.146;2022-08-20T11:07:28;23.50;99.90
7512;DHT22;9999;48.780;9.146;2022-08-20T11:09:56;23.40;99.90
7512;DHT22;9999;48.780;9.146;2022-08-20T11:12:24;23.50;99.90
7512;DHT22;9999;48.780;9.146;2022-08-20T11:14:52;23.60;99.90
7512;DHT22;9999;48.780;9.146;2022-08-20T11:17:21;23.70;99.90
7512;DHT22;9999;48.780;9.146;2022-08-20T11:19:48;23.80;99.90
7512;DHT22;9999;48.780;9.146;2022-08-20T11:22:15;24.10;99.90
7512;DHT22;9999;48.780;9.146;2022-08-20T11:24:42;24.40;99.90
7512;DHT22;9999;48.780;9.146;2022-08-20T11:27:09;24.50;99.90
7512;DHT22;9999;48.780;9.146;2022-08-20T11:29:40;24.40;99.90
7512;DHT22;9999;48.780;9.146;2022-08-20T11:32:09;24.20;99.90
7512;DHT22;9999;48.780;9.146;2022-08-20T11:34:36;24.00;99.90
7512;DHT22;9999;48.780;9.146;2022-08-20T11:37:03;23.70;99.90
7512;DHT22;9999;48.780;9.146;2022-08-20T11:39:30;23.50;99.90
7512;DHT22;9999;48.780;9.146;2022-08-20T11:41:57;23.30;99.90
7512;DHT22;9999;48.780;9.146;2022-08-20T11:44:23;23.30;99.90
7512;DHT22;9999;48.780;9.146;2022-08-20T11:46:51;23.30;99.90
7512;DHT22;9999;48.780;9.146;2022-08-20T11:49:18;23.30;99.90
7512;DHT22;9999;48.780;9.146;2022-08-20T11:51:45;23.40;99.90
7512;DHT22;9999;48.780;9.146;2022-08-20T11:54:12;23.30;99.90
7512;DHT22;9999;48.780;9.146;2022-08-20T11:56:38;23.10;99.90
7512;DHT22;9999;48.780;9.146;2022-08-20T11:59:05;23.00;99.90
7512;DHT22;9999;48.780;9.146;2022-08-20T12:01:32;23.00;99.90
7512;DHT22;9999;48.780;9.146;2022-08-20T12:04:00;23.00;99.90
7512;DHT22;9999;48.780;9.146;2022-08-20T12:06:27;23.00;99.90
7512;DHT22;9999;48.780;9.146;2022-08-20T12:08:54;23.00;99.90
7512;DHT22;9999;48.780;9.146;2022-08-20T12:11:20;23.00;99.90
7512;DHT22;9999;48.780;9.146;2022-08-20T12:13:47;23.10;99.90
7512;DHT22;9999;48.780;9.146;2022-08-20T12:16:14;23.20;99.90
7512;DHT22;9999;48.780;9.146;2022-08-20T12:18:41;23.20;99.90
7512;DHT22;9999;48.780;9.146;2022-08-20T12:21:09;23.20;99.90
7512;DHT22;9999;48.780;9.146;2022-08-20T12:23:36;23.10;99.90
7512;DHT22;9999;48.780;9.146;2022-08-20T12:26:03;23.20;99.90
7512;DHT22;9999;48.780;9.146;2022-08-20T12:28:33;23.10;99.90
7512;DHT22;9999;48.780;9.146;2022-08-20T12:31:00;23.10;99.90
7512;DHT22;9999;48.780;9.146;2022-08-20T12:33:27;23.20;99.90
7512;DHT22;9999;48.780;9.146;2022-08-20T12:35:53;23.20;99.90
7512;DHT22;9999;48.780;9.146;2022-08-20T12:38:21;23.40;99.90
7512;DHT22;9999;48.780;9.146;2022-08-20T12:40:48;23.40;99.90
7512;DHT22;9999;48.780;9.146;2022-08-20T12:43:15;23.60;99.90
7512;DHT22;9999;48.780;9.146;2022-08-20T12:45:42;23.60;99.90
7512;DHT22;9999;48.780;9.146;2022-08-20T12:48:11;23.60;99.90
7512;DHT22;9999;48.780;9.146;2022-08-20T12:50:40;23.60;99.90
7512;DHT22;9999;48.780;9.146;2022-08-20T12:53:08;23.70;99.90
7512;DHT22;9999;48.780;9.146;2022-08-20T12:55:36;23.80;99.90
7512;DHT22;9999;48.780;9.146;2022-08-20T12:58:06;23.80;99.90
7512;DHT22;9999;48.780;9.146;2022-08-20T13:00:36;23.70;99.90
7512;DHT22;9999;48.780;9.146;2022-08-20T13:03:04;23.50;99.90
7512;DHT22;9999;48.780;9.146;2022-08-20T13:05:33;23.40;99.90
7512;DHT22;9999;48.780;9.146;2022-08-20T13:08:03;23.40;99.90
7512;DHT22;9999;48.780;9.146;2022-08-20T13:10:34;23.20;99.90
7512;DHT22;9999;48.780;9.146;2022-08-20T13:13:02;23.20;99.90
7512;DHT22;9999;48.780;9.146;2022-08-20T13:15:30;23.40;99.90
7512;DHT22;9999;48.780;9.146;2022-08-20T13:18:01;23.50;99.90
7512;DHT22;9999;48.780;9.146;2022-08-20T13:20:28;23.70;99.90
7512;DHT22;9999;48.780;9.146;2022-08-20T13:22:56;23.80;99.90
7512;DHT22;9999;48.780;9.146;2022-08-20T13:25:23;23.90;99.90
7512;DHT22;9999;48.780;9.146;2022-08-20T13:27:54;23.90;99.90
7512;DHT22;9999;48.780;9.146;2022-08-20T13:30:23;23.80;99.90
7512;DHT22;9999;48.780;9.146;2022-08-20T13:32:49;23.90;99.90
7512;DHT22;9999;48.780;9.146;2022-08-20T13:35:17;23.80;99.90
7512;DHT22;9999;48.780;9.146;2022-08-20T13:37:44;23.90;99.90
7512;DHT22;9999;48.780;9.146;2022-08-20T13:40:11;23.80;99.90
7512;DHT22;9999;48.780;9.146;2022-08-20T13:42:38;23.90;99.90
7512;DHT22;9999;48.780;9.146;2022-08-20T13:45:06;23.90;99.90
7512;DHT22;9999;48.780;9.146;2022-08-20T13:47:36;23.80;99.90
7512;DHT22;9999;48.780;9.146;2022-08-20T13:50:06;24.10;99.90
7512;DHT22;9999;48.780;9.146;2022-08-20T13:52:35;24.50;99.90
7512;DHT22;9999;48.780;9.146;2022-08-20T13:55:04;24.80;99.90
7512;DHT22;9999;48.780;9.146;2022-08-20T13:57:31;25.00;99.90
7512;DHT22;9999;48.780;9.146;2022-08-20T13:59:58;24.80;99.90
7512;DHT22;9999;48.780;9.146;2022-08-20T14:02:25;24.70;99.90
7512;DHT22;9999;48.780;9.146;2022-08-20T14:04:53;24.30;99.90
7512;DHT22;9999;48.780;9.146;2022-08-20T14:07:25;24.20;99.90
7512;DHT22;9999;48.780;9.146;2022-08-20T14:09:54;24.00;99.90
7512;DHT22;9999;48.780;9.146;2022-08-20T14:12:22;23.90;99.90
7512;DHT22;9999;48.780;9.146;2022-08-20T14:14:50;23.90;99.90
7512;DHT22;9999;48.780;9.146;2022-08-20T14:17:19;24.00;99.90
7512;DHT22;9999;48.780;9.146;2022-08-20T14:19:47;24.00;99.90
7512;DHT22;9999;48.780;9.146;2022-08-20T14:22:15;24.10;99.90
7512;DHT22;9999;48.780;9.146;2022-08-20T14:24:43;23.90;99.90
7512;DHT22;9999;48.780;9.146;2022-08-20T14:27:10;23.90;99.90
7512;DHT22;9999;48.780;9.146;2022-08-20T14:29:39;24.00;99.90
7512;DHT22;9999;48.780;9.146;2022-08-20T14:32:06;24.10;99.90
7512;DHT22;9999;48.780;9.146;2022-08-20T14:34:33;24.30;99.90
7512;DHT22;9999;48.780;9.146;2022-08-20T14:37:11;24.40;99.90
7512;DHT22;9999;48.780;9.146;2022-08-20T14:39:40;24.60;99.90
7512;DHT22;9999;48.780;9.146;2022-08-20T14:42:07;24.70;99.90
7512;DHT22;9999;48.780;9.146;2022-08-20T14:44:33;24.60;99.90
7512;DHT22;9999;48.780;9.146;2022-08-20T14:47:09;24.60;99.90
7512;DHT22;9999;48.780;9.146;2022-08-20T14:49:36;24.70;99.90
7512;DHT22;9999;48.780;9.146;2022-08-20T14:52:03;25.00;99.90
7512;DHT22;9999;48.780;9.146;2022-08-20T14:54:30;25.20;99.90
7512;DHT22;9999;48.780;9.146;2022-08-20T14:56:58;25.30;99.90
7512;DHT22;9999;48.780;9.146;2022-08-20T14:59:25;25.30;99.90
7512;DHT22;9999;48.780;9.146;2022-08-20T15:01:52;24.70;99.90
7512;DHT22;9999;48.780;9.146;2022-08-20T15:04:19;24.80;99.90
7512;DHT22;9999;48.780;9.146;2022-08-20T15:06:46;24.90;99.90
7512;DHT22;9999;48.780;9.146;2022-08-20T15:09:13;25.00;99.90
7512;DHT22;9999;48.780;9.146;2022-08-20T15:11:40;25.10;99.90
7512;DHT22;9999;48.780;9.146;2022-08-20T15:14:08;25.20;99.90
7512;DHT22;9999;48.780;9.146;2022-08-20T15:16:35;25.30;99.90
7512;DHT22;9999;48.780;9.146;2022-08-20T15:19:04;25.50;99.90
7512;DHT22;9999;48.780;9.146;2022-08-20T15:21:31;25.50;99.90
7512;DHT22;9999;48.780;9.146;2022-08-20T15:23:58;25.70;99.90
7512;DHT22;9999;48.780;9.146;2022-08-20T15:26:24;25.80;99.90
7512;DHT22;9999;48.780;9.146;2022-08-20T15:28:51;25.80;99.90
7512;DHT22;9999;48.780;9.146;2022-08-20T15:31:19;25.70;99.90
7512;DHT22;9999;48.780;9.146;2022-08-20T15:33:46;25.60;99.90
7512;DHT22;9999;48.780;9.146;2022-08-20T15:36:13;25.20;99.90
7512;DHT22;9999;48.780;9.146;2022-08-20T15:38:39;25.10;99.90
7512;DHT22;9999;48.780;9.146;2022-08-20T15:41:06;24.90;99.90
7512;DHT22;9999;48.780;9.146;2022-08-20T15:43:33;24.90;99.90
7512;DHT22;9999;48.780;9.146;2022-08-20T15:46:03;25.20;99.90
7512;DHT22;9999;48.780;9.146;2022-08-20T15:48:33;25.30;99.90
7512;DHT22;9999;48.780;9.146;2022-08-20T15:51:22;25.60;99.90
7512;DHT22;9999;48.780;9.146;2022-08-20T15:53:59;25.80;99.90
7512;DHT22;9999;48.780;9.146;2022-08-20T15:56:46;25.80;99.90
7512;DHT22;9999;48.780;9.146;2022-08-20T15:59:26;25.80;99.90
7512;DHT22;9999;48.780;9.146;2022-08-20T16:02:09;25.90;99.90
7512;DHT22;9999;48.780;9.146;2022-08-20T16:05:13;25.70;99.90
7512;DHT22;9999;48.780;9.146;2022-08-20T16:07:47;25.70;99.90
7512;DHT22;9999;48.780;9.146;2022-08-20T16:10:19;25.80;99.10